Time;durP1;ratioP1;P1;durP2;ratioP2;P2;SDS_P1;SDS_P2;PMS_P1;PMS_P2;Temp;Humidity;BMP_temperature;BMP_pressure;BME280_temperature;BME280_humidity;BME280_pressure;Samples;Min_cycle;Max_cycle;Signal;HPM_P1;HPM_P2
2023/03/26 00:01:22;;;;;;;14.23;8.90;;;;;;;6.34;91.10;98998.39;1733228;82;25557;-50
2023/03/26 00:03:53;;;;;;;13.65;8.60;;;;;;;6.36;91.08;98991.37;1733166;82;25463;-50
2023/03/26 00:06:30;;;;;;;13.28;8.38;;;;;;;6.39;91.10;98994.78;1733141;82;27304;-50
2023/03/26 00:08:58;;;;;;;12.65;7.75;;;;;;;6.41;91.09;98987.19;1733103;82;25597;-49
2023/03/26 00:11:28;;;;;;;12.98;8.10;;;;;;;6.43;91.02;98986.88;1733122;82;25656;-50
2023/03/26 00:13:58;;;;;;;;;;;;;;;6.45;91.09;98986.83;1735684;82;26368;-49
2023/03/26 00:16:30;;;;;;;14.58;8.10;;;;;;;6.47;91.00;98990.52;1733096;82;25541;-50
2023/03/26 00:19:00;;;;;;;13.30;8.48;;;;;;;6.49;90.99;98993.14;1732872;82;27336;-50
2023/03/26 00:21:29;;;;;;;18.05;8.80;;;;;;;6.50;91.12;98991.23;1732281;82;25709;-49
2023/03/26 00:24:03;;;;;;;12.75;8.45;;;;;;;6.51;91.05;98986.12;1733262;82;25637;-50
2023/03/26 00:26:33;;;;;;;14.75;8.68;;;;;;;6.52;91.08;98986.34;1733085;82;26542;-48
2023/03/26 00:28:59;;;;;;;10.85;7.20;;;;;;;6.51;90.95;98982.09;1733162;82;25466;-49
2023/03/26 00:31:27;;;;;;;13.62;7.75;;;;;;;6.52;90.88;98982.30;1733101;82;27430;-48
2023/03/26 00:33:55;;;;;;;12.75;8.50;;;;;;;6.55;90.83;98983.03;1733007;82;25624;-50
2023/03/26 00:36:25;;;;;;;15.48;9.08;;;;;;;6.56;90.46;98973.09;1731131;82;25978;-50
2023/03/26 00:38:53;;;;;;;14.98;7.92;;;;;;;6.54;90.26;98978.22;1728337;82;25728;-48
2023/03/26 00:41:24;;;;;;;16.48;7.35;;;;;;;6.51;90.06;98969.44;1711881;83;25631;-49
2023/03/26 00:43:58;;;;;;;14.95;8.10;;;;;;;6.50;89.99;98977.81;1711928;83;27932;-49
2023/03/26 00:46:29;;;;;;;13.95;8.53;;;;;;;6.48;89.90;98978.12;1711846;83;25629;-49
2023/03/26 00:48:57;;;;;;;15.63;8.60;;;;;;;6.45;89.78;98975.27;1712006;83;25579;-49
2023/03/26 00:51:27;;;;;;;14.17;8.37;;;;;;;6.41;89.62;98977.80;1712197;83;25779;-48
2023/03/26 00:53:53;;;;;;;16.02;8.05;;;;;;;6.37;89.70;98978.19;1712124;83;25611;-50
2023/03/26 00:56:20;;;;;;;13.10;7.65;;;;;;;6.33;90.15;98970.50;1711849;83;27341;-49
2023/03/26 00:58:48;;;;;;;14.93;8.20;;;;;;;6.30;89.89;98971.13;1711900;83;25473;-48
2023/03/26 01:01:25;;;;;;;12.82;7.83;;;;;;;6.27;90.02;98968.52;1712062;83;29957;-48
2023/03/26 01:03:57;;;;;;;11.00;7.70;;;;;;;6.26;89.93;98967.48;1712043;83;25612;-50
2023/03/26 01:06:34;;;;;;;13.10;7.65;;;;;;;6.23;90.04;98963.55;1712162;83;25437;-48
2023/03/26 01:09:17;;;;;;;12.58;7.83;;;;;;;6.21;89.78;98970.32;1712018;83;27260;-50
2023/03/26 01:11:45;;;;;;;12.13;7.08;;;;;;;6.19;89.93;98968.51;1711673;83;25622;-48
2023/03/26 01:14:24;;;;;;;11.10;7.15;;;;;;;6.16;89.84;98968.56;1711932;83;25590;-52
2023/03/26 01:16:54;;;;;;;;;;;;;;;6.14;89.85;98972.11;1714504;83;25680;-50
2023/03/26 01:19:43;;;;;;;;;;;;;;;6.13;89.90;98971.33;1714534;83;25573;-51
2023/03/26 01:22:22;;;;;;;13.03;7.47;;;;;;;6.13;89.92;98967.84;1712009;83;27267;-49
2023/03/26 01:24:55;;;;;;;13.48;6.62;;;;;;;6.09;89.77;98969.02;1711859;83;25626;-49
2023/03/26 01:27:42;;;;;;;12.45;7.47;;;;;;;6.07;89.98;98968.54;1712043;83;25598;-49
2023/03/26 01:30:26;;;;;;;13.40;7.42;;;;;;;6.07;90.05;98963.17;1711819;83;25694;-49
2023/03/26 01:33:21;;;;;;;11.95;7.35;;;;;;;6.06;90.12;98959.45;1711798;83;25404;-50
2023/03/26 01:35:56;;;;;;;16.45;7.35;;;;;;;6.06;90.03;98956.77;1710860;83;27408;-51
2023/03/26 01:38:37;;;;;;;16.12;7.05;;;;;;;6.05;90.16;98949.27;1711832;83;25446;-49
2023/03/26 01:41:28;;;;;;;14.10;6.97;;;;;;;6.07;90.13;98947.06;1711913;83;25402;-52
2023/03/26 01:44:09;;;;;;;11.15;7.08;;;;;;;6.08;90.11;98943.29;1711626;83;26423;-51
2023/03/26 01:46:37;;;;;;;12.18;6.75;;;;;;;6.08;90.06;98938.45;1710766;83;25560;-52
2023/03/26 01:49:11;;;;;;;10.40;6.58;;;;;;;6.07;90.10;98934.98;1711935;83;27340;-52
2023/03/26 01:51:35;;;;;;;10.32;6.17;;;;;;;6.08;90.22;98935.23;1711995;83;25634;-50
2023/03/26 01:54:07;;;;;;;15.25;7.58;;;;;;;6.08;89.92;98930.39;1711962;83;25585;-51
2023/03/26 01:57:12;;;;;;;13.85;6.33;;;;;;;6.08;89.97;98926.37;1712065;83;25851;-49
2023/03/26 02:00:11;;;;;;;11.03;6.17;;;;;;;6.09;89.93;98926.63;1712207;83;25398;-48
2023/03/26 02:02:56;;;;;;;11.75;6.45;;;;;;;6.09;89.97;98927.41;1712029;83;27345;-49
2023/03/26 02:05:40;;;;;;;11.20;6.67;;;;;;;6.11;90.11;98927.91;1711941;83;25709;-49
2023/03/26 02:08:36;;;;;;;11.90;6.65;;;;;;;6.11;89.98;98928.44;1710656;83;25473;-50
2023/03/26 02:11:11;;;;;;;10.43;6.35;;;;;;;6.11;89.89;98928.44;1712064;83;25673;-47
2023/03/26 02:13:42;;;;;;;11.83;6.30;;;;;;;6.11;89.88;98919.04;1712091;83;25585;-52
2023/03/26 02:16:15;;;;;;;9.83;5.92;;;;;;;6.10;89.95;98914.79;1712085;83;27317;-50
2023/03/26 02:18:44;;;;;;;10.32;6.22;;;;;;;6.12;89.94;98919.29;1711962;83;25629;-48
2023/03/26 02:21:19;;;;;;;9.85;6.22;;;;;;;6.12;89.99;98913.92;1712181;83;25593;-50
2023/03/26 02:23:46;;;;;;;12.37;5.85;;;;;;;6.12;89.98;98916.05;1712071;83;25685;-48
2023/03/26 02:26:18;;;;;;;9.63;5.75;;;;;;;6.13;90.04;98916.83;1712002;83;25437;-49
2023/03/26 02:28:45;;;;;;;10.18;5.90;;;;;;;6.13;90.02;98915.48;1712067;83;28336;-50
2023/03/26 02:31:14;;;;;;;10.30;6.10;;;;;;;6.14;90.02;98915.73;1711912;83;25413;-49
2023/03/26 02:33:43;;;;;;;13.32;6.33;;;;;;;6.13;90.00;98910.12;1712116;83;25575;-49
2023/03/26 02:36:12;;;;;;;12.47;6.03;;;;;;;6.14;89.99;98915.17;1712097;83;25675;-49
2023/03/26 02:38:40;;;;;;;10.10;6.03;;;;;;;6.13;90.13;98912.27;1712193;83;25450;-49
2023/03/26 02:41:07;;;;;;;11.33;5.92;;;;;;;6.14;90.08;98913.05;1711963;82;27264;-50
2023/03/26 02:43:35;;;;;;;11.53;5.87;;;;;;;6.14;90.10;98910.37;1711948;83;25993;-49
2023/03/26 02:46:01;;;;;;;11.93;6.42;;;;;;;6.14;90.21;98905.78;1712006;83;25570;-48
2023/03/26 02:48:27;;;;;;;8.75;5.37;;;;;;;6.15;90.23;98904.69;1712011;83;25597;-49
2023/03/26 02:50:54;;;;;;;10.98;5.95;;;;;;;6.15;90.30;98904.69;1712038;83;25455;-49
2023/03/26 02:53:22;;;;;;;11.25;5.95;;;;;;;6.15;90.24;98903.91;1712016;83;29549;-48
2023/03/26 02:55:49;;;;;;;9.80;5.20;;;;;;;6.13;90.17;98905.56;1711950;83;25466;-48
2023/03/26 02:58:18;;;;;;;9.63;5.00;;;;;;;6.13;90.09;98912.80;1712016;83;25434;-49
2023/03/26 03:00:49;;;;;;;8.68;5.42;;;;;;;6.11;90.21;98907.77;1711969;83;25797;-49
2023/03/26 03:03:16;;;;;;;8.43;5.42;;;;;;;6.10;90.18;98910.77;1712188;83;25626;-49
2023/03/26 03:05:42;;;;;;;10.15;5.53;;;;;;;6.11;90.35;98919.85;1711918;83;27331;-48
2023/03/26 03:08:10;;;;;;;8.88;5.20;;;;;;;6.11;90.40;98915.02;1711880;83;25615;-48
2023/03/26 03:10:38;;;;;;;15.15;6.05;;;;;;;6.12;90.58;98909.89;1711952;83;25539;-49
2023/03/26 03:13:06;;;;;;;11.50;5.25;;;;;;;6.12;90.60;98914.70;1711954;83;26286;-51
2023/03/26 03:15:34;;;;;;;10.60;4.97;;;;;;;6.13;90.79;98911.45;1712000;83;25545;-49
2023/03/26 03:18:01;;;;;;;9.05;5.60;;;;;;;6.14;90.74;98914.39;1711950;83;27898;-48
2023/03/26 03:20:29;;;;;;;10.60;5.55;;;;;;;6.16;90.80;98921.58;1711910;83;25629;-48
2023/03/26 03:22:55;;;;;;;9.70;5.47;;;;;;;6.18;90.75;98916.70;1711967;83;25581;-50
2023/03/26 03:25:22;;;;;;;10.50;5.00;;;;;;;6.19;90.72;98921.52;1711947;83;34794;-48
2023/03/26 03:27:49;;;;;;;10.40;4.83;;;;;;;6.22;90.71;98927.61;1711967;83;25454;-51
2023/03/26 03:30:16;;;;;;;5.90;3.72;;;;;;;6.22;90.57;98930.30;1711993;83;27388;-51
2023/03/26 03:32:42;;;;;;;7.92;4.50;;;;;;;6.21;90.67;98930.83;1711857;83;25405;-49
2023/03/26 03:35:10;;;;;;;11.10;5.15;;;;;;;6.22;90.73;98930.30;1711962;83;25651;-49
2023/03/26 03:37:36;;;;;;;9.18;5.22;;;;;;;6.22;90.57;98928.95;1711937;83;25625;-52
2023/03/26 03:40:09;;;;;;;8.50;4.78;;;;;;;6.22;90.55;98928.39;1711928;82;25507;-48
2023/03/26 03:42:34;;;;;;;10.32;5.17;;;;;;;6.22;90.50;98927.05;1712045;83;27390;-49
2023/03/26 03:45:05;;;;;;;10.30;5.17;;;;;;;6.22;90.53;98924.92;1711929;83;25558;-49
2023/03/26 03:47:31;;;;;;;8.93;5.08;;;;;;;6.23;90.52;98927.30;1711963;83;25445;-49
2023/03/26 03:49:59;;;;;;;9.03;4.85;;;;;;;6.25;90.48;98930.98;1711955;83;25543;-52
2023/03/26 03:52:27;;;;;;;11.73;5.40;;;;;;;6.26;90.51;98920.50;1711973;83;25469;-49
2023/03/26 03:54:56;;;;;;;10.75;4.83;;;;;;;6.26;90.37;98926.65;1711966;83;28021;-48
2023/03/26 03:57:24;;;;;;;10.78;4.62;;;;;;;6.26;90.31;98929.34;1711915;83;25621;-50
2023/03/26 03:59:52;;;;;;;8.73;4.47;;;;;;;6.26;90.28;98923.19;1711980;83;25460;-49
2023/03/26 04:02:24;;;;;;;9.10;4.40;;;;;;;6.27;90.38;98925.56;1711998;83;25672;-49
2023/03/26 04:04:48;;;;;;;7.50;4.28;;;;;;;6.29;90.27;98921.22;1712255;83;25558;-49
2023/03/26 04:07:15;;;;;;;6.90;4.47;;;;;;;6.29;90.34;98920.66;1711909;83;27406;-48
2023/03/26 04:09:41;;;;;;;5.37;3.70;;;;;;;6.31;90.11;98925.16;1711914;83;25908;-48
2023/03/26 04:12:08;;;;;;;8.50;4.37;;;;;;;6.31;90.10;98921.13;1711986;83;25623;-48
2023/03/26 04:14:34;;;;;;;7.72;4.17;;;;;;;6.31;90.10;98919.79;1711922;83;26139;-49
2023/03/26 04:17:04;;;;;;;7.75;4.22;;;;;;;6.33;90.05;98923.50;1711970;83;25402;-48
2023/03/26 04:19:31;;;;;;;10.07;4.87;;;;;;;6.34;90.16;98922.41;1712166;83;25863;-48
2023/03/26 04:22:05;;;;;;;8.25;4.00;;;;;;;6.36;89.96;98920.20;1711829;83;25443;-48
2023/03/26 04:24:32;;;;;;;7.12;3.52;;;;;;;6.38;89.93;98922.01;1711583;83;25574;-48
2023/03/26 04:27:00;;;;;;;10.78;4.00;;;;;;;6.39;89.81;98922.83;1711901;83;26617;-49
2023/03/26 04:29:31;;;;;;;8.58;4.60;;;;;;;6.39;89.79;98919.58;1711960;83;25574;-50
2023/03/26 04:32:05;;;;;;;8.50;4.60;;;;;;;6.41;89.78;98916.02;1711966;83;27286;-49
2023/03/26 04:34:28;;;;;;;6.78;3.65;;;;;;;6.43;89.71;98913.02;1712186;83;25396;-48
2023/03/26 04:36:54;;;;;;;7.58;3.83;;;;;;;6.43;89.62;98916.48;1711966;83;25454;-48
2023/03/26 04:39:22;;;;;;;8.30;4.05;;;;;;;6.43;89.56;98913.80;1711872;83;25690;-49
2023/03/26 04:41:48;;;;;;;7.00;4.03;;;;;;;6.44;89.60;98913.27;1728475;82;25622;-49
2023/03/26 04:44:15;;;;;;;5.75;4.10;;;;;;;6.45;89.47;98910.80;1733063;82;28048;-50
2023/03/26 04:46:44;;;;;;;7.55;3.58;;;;;;;6.48;89.43;98911.52;1732968;82;25740;-50
2023/03/26 04:49:10;;;;;;;5.78;3.72;;;;;;;6.48;89.37;98911.52;1733346;82;25640;-50
2023/03/26 04:51:40;;;;;;;7.72;3.60;;;;;;;6.49;89.29;98911.21;1733124;82;25577;-50
2023/03/26 04:54:11;;;;;;;7.95;3.98;;;;;;;6.50;89.23;98910.12;1733119;82;25401;-50
2023/03/26 04:57:00;;;;;;;7.90;4.20;;;;;;;6.50;89.10;98910.12;1733100;82;27444;-49
2023/03/26 04:59:36;;;;;;;7.05;4.08;;;;;;;6.50;89.12;98911.46;1733132;82;25603;-49
2023/03/26 05:02:06;;;;;;;8.05;3.90;;;;;;;6.50;89.04;98910.65;1733147;82;25405;-50
2023/03/26 05:04:38;;;;;;;6.53;3.42;;;;;;;6.52;89.15;98913.27;1733108;82;26214;-50
2023/03/26 05:07:03;;;;;;;10.23;4.15;;;;;;;6.51;89.10;98916.27;1732954;82;25469;-49
2023/03/26 05:09:29;;;;;;;5.97;4.08;;;;;;;6.53;89.10;98924.80;1733075;82;27228;-51
2023/03/26 05:11:57;;;;;;;8.55;4.10;;;;;;;6.52;89.34;98922.67;1733036;82;25601;-50
2023/03/26 05:14:24;;;;;;;7.78;4.12;;;;;;;6.53;89.70;98920.77;1733082;82;25389;-49
2023/03/26 05:16:52;;;;;;;8.08;4.25;;;;;;;6.52;89.90;98920.52;1732973;82;25706;-49
2023/03/26 05:19:20;;;;;;;7.00;4.00;;;;;;;6.48;89.90;98916.89;1733193;82;25566;-50
2023/03/26 05:21:47;;;;;;;7.30;3.72;;;;;;;6.46;90.04;98923.92;1733077;82;27495;-51
2023/03/26 05:24:14;;;;;;;8.93;4.22;;;;;;;6.44;90.10;98917.30;1732978;82;25486;-49
2023/03/26 05:26:41;;;;;;;8.50;4.30;;;;;;;6.42;90.44;98919.48;1733031;82;25444;-53
2023/03/26 05:29:08;;;;;;;10.25;5.05;;;;;;;6.39;90.56;98910.17;1733049;82;25678;-50
2023/03/26 05:31:35;;;;;;;6.50;3.80;;;;;;;6.41;90.77;98916.58;1733229;82;25392;-49
2023/03/26 05:34:02;;;;;;;11.68;5.40;;;;;;;6.42;90.96;98908.21;1733196;82;28027;-49
2023/03/26 05:36:29;;;;;;;8.85;4.47;;;;;;;6.43;90.95;98905.74;1733179;82;25482;-51
2023/03/26 05:38:56;;;;;;;10.68;4.45;;;;;;;6.46;91.07;98905.68;1733226;82;25654;-49
2023/03/26 05:41:22;;;;;;;9.60;4.08;;;;;;;6.48;91.24;98906.93;1723618;82;25627;-50
2023/03/26 05:43:49;;;;;;;7.47;4.40;;;;;;;6.48;91.40;98910.17;1712064;83;25570;-49
2023/03/26 05:46:19;;;;;;;7.72;4.17;;;;;;;6.49;91.45;98905.84;1711995;83;29467;-50
2023/03/26 05:48:45;;;;;;;8.95;3.83;;;;;;;6.50;91.27;98906.09;1712025;83;25515;-51
2023/03/26 05:51:14;;;;;;;8.65;4.37;;;;;;;6.51;91.34;98908.21;1712004;83;25568;-49
2023/03/26 05:53:42;;;;;;;7.78;3.92;;;;;;;6.54;91.52;98908.37;1712171;83;26189;-49
2023/03/26 05:56:10;;;;;;;6.97;4.03;;;;;;;6.59;91.77;98902.06;1712107;83;25476;-48
2023/03/26 05:58:37;;;;;;;7.15;4.35;;;;;;;6.61;91.49;98902.52;1712044;83;27258;-49
2023/03/26 06:01:08;;;;;;;9.88;4.70;;;;;;;6.64;91.45;98902.43;1711921;83;25866;-48
2023/03/26 06:03:39;;;;;;;8.63;4.37;;;;;;;6.67;91.45;98900.46;1712096;83;25554;-49
2023/03/26 06:06:18;;;;;;;7.00;4.62;;;;;;;6.73;91.55;98905.92;1712044;83;27786;-48
2023/03/26 06:08:49;;;;;;;8.30;4.67;;;;;;;6.80;91.52;98902.76;1710800;83;25632;-48
2023/03/26 06:11:19;;;;;;;8.73;4.30;;;;;;;6.85;91.43;98906.06;1712097;83;28095;-49
2023/03/26 06:13:47;;;;;;;9.48;5.30;;;;;;;6.88;91.33;98905.44;1711990;83;25672;-49
2023/03/26 06:16:16;;;;;;;10.63;4.67;;;;;;;6.99;91.21;98902.42;1712007;83;25557;-48
2023/03/26 06:18:43;;;;;;;9.88;4.50;;;;;;;7.04;90.77;98900.91;1712116;83;25582;-49
2023/03/26 06:21:10;;;;;;;7.70;4.72;;;;;;;7.09;90.69;98902.86;1712043;83;25545;-49
2023/03/26 06:23:36;;;;;;;7.72;4.42;;;;;;;7.19;91.07;98907.12;1712058;83;27392;-48
2023/03/26 06:26:02;;;;;;;7.22;4.28;;;;;;;7.28;90.64;98909.23;1711901;82;27205;-51
2023/03/26 06:28:29;;;;;;;10.13;4.40;;;;;;;7.38;89.72;98904.06;1712088;83;26938;-51
2023/03/26 06:31:00;;;;;;;9.08;4.47;;;;;;;7.44;89.39;98904.14;1712031;83;25615;-50
2023/03/26 06:33:28;;;;;;;9.53;3.95;;;;;;;7.46;88.98;98907.29;1712093;83;25398;-50
2023/03/26 06:35:55;;;;;;;8.88;4.08;;;;;;;7.50;88.81;98901.27;1712015;83;27315;-49
2023/03/26 06:38:22;;;;;;;7.75;3.90;;;;;;;7.52;88.51;98907.11;1711952;83;25476;-50
2023/03/26 06:40:48;;;;;;;5.22;3.27;;;;;;;7.55;87.34;98903.78;1711821;83;25622;-49
2023/03/26 06:43:14;;;;;;;8.85;3.87;;;;;;;7.56;87.28;98902.66;1712020;83;25534;-51
2023/03/26 06:45:41;;;;;;;8.58;3.75;;;;;;;7.55;87.05;98901.09;1712073;83;25492;-49
2023/03/26 06:48:07;;;;;;;10.05;4.25;;;;;;;7.57;86.73;98900.20;1711992;83;27347;-49
2023/03/26 06:50:33;;;;;;;6.92;3.85;;;;;;;7.56;87.05;98916.11;1711941;83;25561;-49
2023/03/26 06:53:00;;;;;;;7.42;3.95;;;;;;;7.56;87.28;98910.73;1712015;83;25574;-48
2023/03/26 06:55:27;;;;;;;7.00;3.90;;;;;;;7.50;87.35;98911.47;1711974;83;26238;-49
2023/03/26 06:57:56;;;;;;;6.65;3.70;;;;;;;7.45;87.54;98917.80;1712049;83;25507;-49
2023/03/26 07:00:24;;;;;;;5.15;3.35;;;;;;;7.39;87.48;98909.69;1712143;83;27962;-49
2023/03/26 07:02:51;;;;;;;9.58;3.47;;;;;;;7.34;87.67;98913.90;1712189;83;25536;-49
2023/03/26 07:05:19;;;;;;;7.15;3.98;;;;;;;7.33;87.80;98915.56;1712015;83;25525;-49
2023/03/26 07:07:47;;;;;;;6.95;4.00;;;;;;;7.30;87.99;98927.73;1711954;83;26403;-51
2023/03/26 07:10:14;;;;;;;6.80;3.75;;;;;;;7.26;88.17;98912.02;1712040;83;25397;-49
2023/03/26 07:12:41;;;;;;;5.58;3.83;;;;;;;7.26;88.49;98917.39;1711969;83;27379;-49
2023/03/26 07:15:10;;;;;;;6.30;3.52;;;;;;;7.23;88.85;98914.78;1711935;83;27247;-48
2023/03/26 07:17:37;;;;;;;8.18;3.12;;;;;;;7.20;88.70;98916.78;1712111;83;25641;-50
2023/03/26 07:20:07;;;;;;;5.15;3.40;;;;;;;7.18;89.01;98911.48;1711939;83;26015;-51
2023/03/26 07:22:35;;;;;;;6.53;3.40;;;;;;;7.19;89.37;98907.69;1712039;83;25485;-49
2023/03/26 07:25:05;;;;;;;8.97;3.47;;;;;;;7.24;89.52;98914.24;1712202;83;27919;-49
2023/03/26 07:27:56;;;;;;;10.08;3.22;;;;;;;7.37;90.03;98908.42;1712040;83;25567;-50
2023/03/26 07:30:48;;;;;;;7.28;3.65;;;;;;;7.54;90.39;98904.32;1712061;83;25648;-50
2023/03/26 07:33:35;;;;;;;6.10;3.60;;;;;;;7.92;90.85;98910.27;1712033;83;26288;-51
2023/03/26 07:36:31;;;;;;;8.73;3.33;;;;;;;8.19;89.31;98904.19;1712027;83;25593;-49
2023/03/26 07:39:35;;;;;;;5.80;2.90;;;;;;;8.65;88.77;98897.61;1712094;83;27766;-50
2023/03/26 07:42:29;;;;;;;8.00;4.12;;;;;;;8.85;87.44;98905.45;1711936;83;25612;-50
2023/03/26 07:45:27;;;;;;;5.10;3.45;;;;;;;8.89;86.90;98894.25;1711994;83;25559;-52
2023/03/26 07:47:56;;;;;;;6.97;3.60;;;;;;;8.97;86.05;98896.86;1711897;83;26423;-51
2023/03/26 07:50:25;;;;;;;4.03;2.98;;;;;;;9.05;85.52;98895.19;1712145;83;25666;-52
2023/03/26 07:52:54;;;;;;;7.30;3.60;;;;;;;9.09;84.96;98898.00;1712120;83;27967;-50
2023/03/26 07:55:23;;;;;;;8.95;3.37;;;;;;;9.11;83.78;98894.44;1712066;83;25645;-48
2023/03/26 07:58:22;;;;;;;6.33;3.55;;;;;;;9.10;84.04;98883.41;1712015;83;25467;-50
2023/03/26 08:00:56;;;;;;;7.67;3.87;;;;;;;9.13;84.02;98882.75;1711453;83;25920;-51
2023/03/26 08:03:56;;;;;;;7.75;3.40;;;;;;;9.11;84.06;98889.82;1711208;83;25647;-52
2023/03/26 08:06:38;;;;;;;6.08;3.40;;;;;;;9.20;83.34;98872.77;1709625;83;28036;-49
2023/03/26 08:09:13;;;;;;;6.80;3.72;;;;;;;9.29;83.31;98885.02;1710451;83;26346;-51
2023/03/26 08:12:11;;;;;;;6.75;4.05;;;;;;;9.40;83.21;98894.84;1710633;83;25977;-52
2023/03/26 08:14:56;;;;;;;8.40;4.12;;;;;;;9.38;79.98;98907.08;1711539;82;25970;-52
2023/03/26 08:17:31;;;;;;;5.62;4.00;;;;;;;9.29;80.16;98889.06;1711135;83;25522;-52
2023/03/26 08:20:42;;;;;;;6.03;3.70;;;;;;;9.26;80.67;98883.01;1711996;83;27465;-49
2023/03/26 08:23:31;;;;;;;9.00;3.87;;;;;;;9.15;79.07;98883.98;1712021;83;25519;-51
2023/03/26 08:26:18;;;;;;;7.20;3.43;;;;;;;9.06;80.32;98877.09;1712202;83;25603;-49
2023/03/26 08:29:10;;;;;;;4.95;3.58;;;;;;;9.09;79.92;98896.66;1711991;83;26615;-53
2023/03/26 08:31:41;;;;;;;6.00;3.60;;;;;;;9.14;79.25;98874.33;1712008;83;25461;-51
2023/03/26 08:34:14;;;;;;;7.67;3.42;;;;;;;9.32;80.54;98870.86;1717503;83;27410;-50
2023/03/26 08:36:41;;;;;;;6.00;3.70;;;;;;;9.48;79.81;98870.20;1711920;83;25744;-52
2023/03/26 08:39:07;;;;;;;4.65;3.33;;;;;;;9.56;79.32;98857.17;1711989;83;25480;-53
2023/03/26 08:41:52;;;;;;;5.22;3.17;;;;;;;9.79;78.25;98883.17;1711768;82;25682;-52
2023/03/26 08:44:57;;;;;;;4.45;3.40;;;;;;;9.86;78.16;98862.36;1711979;83;25371;-51
2023/03/26 08:48:02;;;;;;;3.40;3.10;;;;;;;9.79;76.92;98866.16;1711869;83;27418;-51
2023/03/26 08:50:56;;;;;;;5.87;2.80;;;;;;;9.56;75.26;98863.91;1711912;83;25426;-50
2023/03/26 08:53:52;;;;;;;6.00;3.47;;;;;;;9.38;76.22;98860.66;1711710;83;25472;-55
2023/03/26 08:56:46;;;;;;;5.90;3.77;;;;;;;9.26;76.66;98876.80;1711963;83;26300;-50
2023/03/26 08:59:38;;;;;;;4.72;3.40;;;;;;;9.08;76.49;98867.55;1711949;83;25404;-50
2023/03/26 09:02:19;;;;;;;5.22;3.87;;;;;;;9.00;77.54;98872.47;1711713;83;27496;-50
2023/03/26 09:05:09;;;;;;;6.47;4.20;;;;;;;8.98;77.71;98868.76;1711831;83;26087;-50
2023/03/26 09:08:15;;;;;;;4.62;3.20;;;;;;;8.94;77.91;98870.55;1711928;83;25616;-50
2023/03/26 09:10:52;;;;;;;5.53;3.70;;;;;;;8.93;78.17;98873.01;1711658;83;25625;-53
2023/03/26 09:13:27;;;;;;;6.85;4.60;;;;;;;8.93;78.20;98866.84;1712019;83;25407;-50
2023/03/26 09:16:04;;;;;;;4.42;3.95;;;;;;;8.95;78.65;98862.67;1710871;83;27357;-52
2023/03/26 09:18:57;;;;;;;8.35;4.55;;;;;;;8.94;77.97;98865.73;1711192;83;25405;-51
2023/03/26 09:21:49;;;;;;;5.03;3.62;;;;;;;8.87;78.43;98865.45;1711937;83;25539;-51
2023/03/26 09:24:51;;;;;;;4.15;3.75;;;;;;;8.81;80.03;98878.37;1711954;83;26044;-51
2023/03/26 09:27:37;;;;;;;5.53;3.98;;;;;;;8.69;80.28;98871.59;1712080;83;25460;-52
2023/03/26 09:30:12;;;;;;;5.70;4.50;;;;;;;8.64;81.21;98867.17;1711994;83;27486;-51
2023/03/26 09:33:20;;;;;;;8.13;4.92;;;;;;;8.62;82.16;98866.72;1711525;83;25720;-52
2023/03/26 09:36:30;;;;;;;8.30;4.78;;;;;;;8.64;82.72;98864.48;1711359;83;25490;-51
2023/03/26 09:39:05;;;;;;;6.28;5.17;;;;;;;8.80;84.53;98864.64;1711772;83;25632;-52
2023/03/26 09:42:12;;;;;;;4.37;3.98;;;;;;;9.29;84.56;98866.70;1712002;83;25439;-51
2023/03/26 09:45:07;;;;;;;6.05;3.98;;;;;;;9.89;85.07;98850.85;1711936;83;27514;-51
2023/03/26 09:47:54;;;;;;;7.83;3.70;;;;;;;11.00;82.70;98853.27;1711842;83;25617;-50
2023/03/26 09:50:35;;;;;;;8.60;3.67;;;;;;;11.21;77.64;98865.20;1711938;83;25569;-52
2023/03/26 09:53:33;;;;;;;4.87;3.92;;;;;;;11.38;77.99;98848.61;1711936;83;25478;-51
2023/03/26 09:56:17;;;;;;;3.85;3.45;;;;;;;11.53;73.88;98851.68;1711570;83;25415;-51
2023/03/26 09:59:04;;;;;;;7.85;3.10;;;;;;;11.41;74.37;98853.91;1712024;83;28322;-50
2023/03/26 10:01:42;;;;;;;4.25;2.90;;;;;;;11.42;72.65;98844.63;1711868;83;25641;-50
2023/03/26 10:04:39;;;;;;;4.80;3.00;;;;;;;11.20;71.86;98852.23;1711918;83;25617;-49
2023/03/26 10:07:30;;;;;;;3.52;3.20;;;;;;;11.00;71.52;98845.14;1711919;83;26293;-53
2023/03/26 10:10:26;;;;;;;5.25;3.10;;;;;;;10.73;71.90;98839.41;1760938;77;25640;-50
2023/03/26 10:13:16;;;;;;;3.85;2.98;;;;;;;10.56;71.69;98841.06;1769102;81;27335;-52
2023/03/26 10:16:12;;;;;;;;;;;;;;;10.37;70.86;98849.23;1772042;81;25475;-51
2023/03/26 10:19:25;;;;;;;4.37;3.25;;;;;;;10.13;70.84;98835.73;1770405;81;25454;-48
2023/03/26 10:22:19;;;;;;;4.05;3.27;;;;;;;9.97;71.52;98844.55;1770219;81;25678;-50
2023/03/26 10:25:11;;;;;;;3.37;3.00;;;;;;;9.93;73.14;98834.75;1770410;81;25462;-50
2023/03/26 10:28:06;;;;;;;4.75;3.10;;;;;;;10.27;72.85;98835.59;1776134;80;27334;-51
2023/03/26 10:30:50;;;;;;;4.62;2.42;;;;;;;11.31;71.24;98840.89;1759510;81;25658;-51
2023/03/26 10:33:25;;;;;;;2.87;2.10;;;;;;;12.20;69.07;98811.00;1792348;79;25679;-51
2023/03/26 10:36:28;;;;;;;2.62;2.00;;;;;;;12.12;67.83;98807.38;1792418;79;26082;-52
2023/03/26 10:39:20;;;;;;;2.22;1.82;;;;;;;12.02;65.64;98836.39;1792964;80;25792;-50
2023/03/26 10:42:16;;;;;;;5.25;2.08;;;;;;;11.61;64.73;98822.83;1792479;79;27379;-51
2023/03/26 10:45:11;;;;;;;1.80;1.70;;;;;;;11.57;68.27;98826.23;1793047;80;25385;-50
2023/03/26 10:47:54;;;;;;;3.40;2.20;;;;;;;11.44;68.71;98828.05;1793503;79;25570;-50
2023/03/26 10:50:50;;;;;;;2.90;1.80;;;;;;;11.20;68.61;98844.66;1793632;79;25713;-52
2023/03/26 10:53:25;;;;;;;1.85;1.40;;;;;;;10.84;68.36;98839.14;1671432;85;25487;-53
2023/03/26 10:55:57;;;;;;;3.35;2.30;;;;;;;10.64;69.75;98836.05;1666632;86;27376;-53
2023/03/26 10:58:28;;;;;;;2.92;1.70;;;;;;;11.30;71.55;98829.84;1665306;86;25811;-50
2023/03/26 11:01:05;;;;;;;2.92;2.08;;;;;;;12.37;70.93;98813.09;1667345;86;25566;-52
2023/03/26 11:04:01;;;;;;;2.83;1.62;;;;;;;12.79;65.50;98813.13;1667404;86;25757;-51
2023/03/26 11:06:54;;;;;;;2.05;1.20;;;;;;;13.05;65.98;98810.28;1666544;86;25567;-53
2023/03/26 11:09:41;;;;;;;1.02;0.70;;;;;;;12.92;64.83;98820.52;1669255;85;27354;-52
2023/03/26 11:12:29;;;;;;;0.82;0.40;;;;;;;12.15;63.24;98868.20;1618967;88;25544;-54
2023/03/26 11:15:04;;;;;;;2.15;0.50;;;;;;;11.40;65.38;98860.44;1619134;88;25666;-52
2023/03/26 11:17:45;;;;;;;1.15;0.35;;;;;;;10.71;66.67;98843.03;1619146;88;25745;-50
2023/03/26 11:20:35;;;;;;;0.55;0.40;;;;;;;10.30;68.68;98847.66;1619131;88;25450;-50
2023/03/26 11:23:19;;;;;;;0.78;0.75;;;;;;;10.07;69.67;98831.14;1619048;88;29773;-52
2023/03/26 11:26:27;;;;;;;2.25;1.07;;;;;;;9.99;70.92;98834.75;1618777;88;25474;-51
2023/03/26 11:29:08;;;;;;;1.42;1.05;;;;;;;10.21;72.18;98826.72;1619048;88;25506;-50
2023/03/26 11:31:51;;;;;;;3.10;1.50;;;;;;;11.09;73.77;98830.88;1723505;83;25638;-52
2023/03/26 11:34:26;;;;;;;1.85;1.70;;;;;;;11.64;72.80;98827.55;1727045;83;25545;-49
2023/03/26 11:36:56;;;;;;;2.98;1.75;;;;;;;11.74;71.45;98821.02;1724907;83;27212;-50
2023/03/26 11:39:29;;;;;;;3.83;1.92;;;;;;;11.68;71.49;98833.27;1726871;83;25685;-54
2023/03/26 11:42:07;;;;;;;3.87;2.27;;;;;;;11.59;70.16;98818.57;1727019;83;25615;-51
2023/03/26 11:44:44;;;;;;;3.05;2.12;;;;;;;11.45;69.76;98828.27;1724966;83;25701;-52
2023/03/26 11:47:15;;;;;;;2.35;2.00;;;;;;;11.21;70.12;98831.36;1725614;83;25489;-49
2023/03/26 11:49:44;;;;;;;2.70;1.95;;;;;;;10.93;69.81;98828.16;1785532;79;26535;-50
2023/03/26 11:52:11;;;;;;;2.95;2.15;;;;;;;10.76;70.58;98828.45;1799992;79;25437;-50
2023/03/26 11:54:37;;;;;;;3.58;2.55;;;;;;;10.55;70.47;98825.96;1799980;79;25613;-52
2023/03/26 11:57:21;;;;;;;6.20;3.52;;;;;;;10.39;70.82;98821.86;1799929;79;25637;-50
2023/03/26 12:00:15;;;;;;;4.83;3.12;;;;;;;10.27;71.61;98822.08;1799977;79;25423;-52
2023/03/26 12:02:40;;;;;;;4.08;2.05;;;;;;;10.16;71.89;98818.27;1733542;82;27384;-50
2023/03/26 12:05:26;;;;;;;3.60;1.92;;;;;;;10.08;71.84;98820.57;1733937;82;25639;-51
2023/03/26 12:07:57;;;;;;;3.45;1.80;;;;;;;9.98;71.39;98822.39;1733968;82;25476;-52
2023/03/26 12:10:36;;;;;;;2.58;2.12;;;;;;;9.90;70.96;98806.52;1733937;81;25642;-51
2023/03/26 12:13:23;;;;;;;3.90;1.70;;;;;;;9.97;71.46;98813.48;1734090;82;25498;-52
2023/03/26 12:15:50;;;;;;;2.83;1.60;;;;;;;10.07;71.61;98821.69;1733987;82;27409;-51
2023/03/26 12:18:27;;;;;;;4.22;2.37;;;;;;;10.15;71.71;98823.47;1733982;82;25456;-51
2023/03/26 12:21:11;;;;;;;3.22;2.15;;;;;;;10.21;71.93;98823.44;1733994;82;25912;-50